4PS2 weather

Altoona Regional Health System-Bon Secours Cam Heliport
Altoona, Pennsylvania, United States

Public forecast

Using degrees Fahrenheit for public forecast. Weather courtesy of forecast.io.

METAR (pilot weather report)

Closest report is Altoona Blair County Airport, 13.0 nm (24.0 km) SSE. Retrieved 2019/05/24 17:53 UTC (59 minutes ago):

KAOO 241753Z AUTO 30014G18KT 10SM CLR 23/09 A3011 RMK AO2 SLP187 T02330089 10233 20172 50000

TAF (pilot weather forecast)

Closest forecast is Altoona Blair County Airport, 13.0 nm (24.0 km) SSE. Retrieved 2019/05/24 18:42 UTC (10 minutes ago):

TAF KAOO 241740Z 2418/2518 31012G18KT P6SM SCT050 FM250000 32006KT P6SM BKN250 FM251500 17006KT P6SM OVC050